Time;durP1;ratioP1;P1;durP2;ratioP2;P2;SDS_P1;SDS_P2;PMS_P1;PMS_P2;Temp;Humidity;BMP_temperature;BMP_pressure;BME280_temperature;BME280_humidity;BME280_pressure;Samples;Min_cycle;Max_cycle;Signal;HPM_P1;HPM_P2
2022/10/20 00:01:35;;;;;;;;;;;;;;;12.95;63.83;95666.06;5114397;28;1913;-65
2022/10/20 00:04:01;;;;;;;;;;;;;;;13.06;62.97;95662.25;5114569;28;993;-66
2022/10/20 00:06:29;;;;;;;;;;;;;;;13.08;62.68;95666.44;5114273;28;1040;-66
2022/10/20 00:08:56;;;;;;;;;;;;;;;13.09;62.46;95665.44;5114466;28;1036;-66
2022/10/20 00:11:23;;;;;;;;;;;;;;;12.87;62.66;95658.00;5114158;28;1072;-66
2022/10/20 00:13:50;;;;;;;;;;;;;;;12.88;62.72;95652.47;5113797;28;1087;-65
2022/10/20 00:16:16;;;;;;;;;;;;;;;12.94;62.50;95658.16;5114043;27;984;-66
2022/10/20 00:18:43;;;;;;;;;;;;;;;12.80;62.98;95655.09;5114121;28;1112;-65
2022/10/20 00:21:11;;;;;;;;;;;;;;;12.83;62.84;95664.69;5114240;28;1055;-65
2022/10/20 00:23:37;;;;;;;;;;;;;;;12.81;63.25;95656.78;5114108;28;1901;-65
2022/10/20 00:26:05;;;;;;;;;;;;;;;12.59;63.48;95657.38;5114063;28;1116;-66
2022/10/20 00:28:31;;;;;;;;;;;;;;;12.55;63.73;95656.84;5113930;28;1052;-65
2022/10/20 00:30:57;;;;;;;;;;;;;;;12.59;63.57;95660.06;5113870;28;1032;-66
2022/10/20 00:33:23;;;;;;;;;;;;;;;12.71;63.22;95653.41;5113812;28;1096;-66
2022/10/20 00:35:49;;;;;;;;;;;;;;;12.64;63.38;95655.06;5113907;28;1657;-66
2022/10/20 00:38:15;;;;;;;;;;;;;;;12.63;63.34;95651.50;5113937;28;1032;-65
2022/10/20 00:40:41;;;;;;;;;;;;;;;12.62;63.18;95649.84;5113944;28;1117;-66
2022/10/20 00:43:15;;;;;;;;;;;;;;;12.46;64.02;95655.13;5113732;28;1989;-65
2022/10/20 00:45:42;;;;;;;;;;;;;;;12.25;65.11;95661.72;5113781;28;999;-66
2022/10/20 00:48:13;;;;;;;;;;;;;;;12.38;64.73;95669.34;5113650;28;1020;-66
2022/10/20 00:50:41;;;;;;;;;;;;;;;12.50;64.12;95667.22;5105843;28;1275;-65
2022/10/20 00:53:07;;;;;;;;;;;;;;;12.50;63.83;95665.41;5093101;28;1120;-65
2022/10/20 00:55:35;;;;;;;;;;;;;;;12.58;63.21;95671.81;5093459;28;965;-65
2022/10/20 00:58:01;;;;;;;;;;;;;;;12.49;63.61;95666.38;5093316;28;1024;-66
2022/10/20 01:00:28;;;;;;;;;;;;;;;12.37;64.91;95667.69;5093438;28;1047;-65
2022/10/20 01:02:56;;;;;;;;;;;;;;;12.37;64.35;95666.81;5093173;28;1977;-65
2022/10/20 01:05:22;;;;;;;;;;;;;;;12.43;63.82;95669.72;5093117;28;1096;-65
2022/10/20 01:07:49;;;;;;;;;;;;;;;12.36;63.93;95667.84;5093350;28;985;-65
2022/10/20 01:10:16;;;;;;;;;;;;;;;12.24;64.15;95669.94;5093181;28;1040;-66
2022/10/20 01:12:54;;;;;;;;;;;;;;;12.27;63.59;95670.47;5093157;28;973;-65
2022/10/20 01:15:28;;;;;;;;;;;;;;;12.33;63.33;95668.13;5093283;28;980;-65
2022/10/20 01:18:09;;;;;;;;;;;;;;;12.26;62.91;95660.75;5093286;28;989;-64
2022/10/20 01:20:39;;;;;;;;;;;;;;;12.20;63.49;95666.75;5093146;28;1073;-65
2022/10/20 01:23:14;;;;;;;;;;;;;;;12.01;64.27;95665.13;5092962;28;1902;-65
2022/10/20 01:25:54;;;;;;;;;;;;;;;11.66;65.20;95656.09;5096014;28;1069;-65
2022/10/20 01:28:26;;;;;;;;;;;;;;;11.84;64.97;95655.25;5097144;28;949;-66
2022/10/20 01:31:00;;;;;;;;;;;;;;;11.98;64.75;95659.22;5096987;28;1052;-65
2022/10/20 01:33:26;;;;;;;;;;;;;;;11.73;65.74;95650.97;5096909;28;1135;-65
2022/10/20 01:36:03;;;;;;;;;;;;;;;11.64;66.09;95655.44;5096820;28;1064;-65
2022/10/20 01:38:35;;;;;;;;;;;;;;;11.88;65.44;95657.44;5097022;28;1019;-66
2022/10/20 01:41:06;;;;;;;;;;;;;;;11.99;65.21;95671.59;5096730;28;1111;-65
2022/10/20 01:43:34;;;;;;;;;;;;;;;11.95;64.31;95665.75;5096709;28;1909;-66
2022/10/20 01:46:02;;;;;;;;;;;;;;;11.93;64.16;95661.53;5096633;28;1214;-65
2022/10/20 01:48:30;;;;;;;;;;;;;;;11.97;64.11;95669.13;5096556;28;1048;-66
2022/10/20 01:50:58;;;;;;;;;;;;;;;11.91;64.02;95670.59;5107094;28;1397;-65
2022/10/20 01:53:24;;;;;;;;;;;;;;;11.76;65.05;95676.59;5116681;28;1219;-65
2022/10/20 01:55:51;;;;;;;;;;;;;;;11.67;65.21;95676.56;5116849;28;1122;-65
2022/10/20 01:58:45;;;;;;;;;;;;;;;11.76;65.49;95680.16;5116836;28;1001;-65
2022/10/20 02:01:17;;;;;;;;;;;;;;;11.86;65.19;95691.59;5116941;28;1054;-65
2022/10/20 02:03:54;;;;;;;;;;;;;;;11.85;64.62;95689.06;5116742;28;1910;-65
2022/10/20 02:06:20;;;;;;;;;;;;;;;11.93;64.04;95691.00;5116676;28;1025;-65
2022/10/20 02:08:52;;;;;;;;;;;;;;;11.93;64.04;95693.69;5116747;28;1015;-65
2022/10/20 02:11:18;;;;;;;;;;;;;;;11.84;63.70;95698.97;5116446;28;1108;-65
2022/10/20 02:13:44;;;;;;;;;;;;;;;11.65;65.49;95707.19;5116741;28;1032;-65
2022/10/20 02:16:15;;;;;;;;;;;;;;;11.83;64.36;95699.94;5116529;28;1057;-65
2022/10/20 02:18:42;;;;;;;;;;;;;;;11.84;64.00;95703.47;5116867;28;1048;-65
2022/10/20 02:21:09;;;;;;;;;;;;;;;11.68;64.61;95704.16;5116422;27;1019;-65
2022/10/20 02:23:37;;;;;;;;;;;;;;;11.81;64.66;95706.47;5116342;28;1914;-64
2022/10/20 02:26:07;;;;;;;;;;;;;;;11.88;64.06;95703.00;5115009;28;1061;-64
2022/10/20 02:28:36;;;;;;;;;;;;;;;11.96;63.54;95701.44;5116438;28;1031;-65
2022/10/20 02:31:02;;;;;;;;;;;;;;;11.63;63.96;95706.47;5116189;28;1080;-65
2022/10/20 02:33:29;;;;;;;;;;;;;;;11.66;64.42;95711.53;5116045;28;1056;-65
2022/10/20 02:35:57;;;;;;;;;;;;;;;11.65;64.52;95718.72;5115868;28;1002;-65
2022/10/20 02:38:23;;;;;;;;;;;;;;;11.65;64.92;95707.19;5115994;28;924;-64
2022/10/20 02:40:49;;;;;;;;;;;;;;;11.74;64.46;95714.25;5115999;28;1120;-65
2022/10/20 02:43:15;;;;;;;;;;;;;;;11.84;63.52;95711.53;5115773;28;1905;-65
2022/10/20 02:45:41;;;;;;;;;;;;;;;11.90;63.21;95721.66;5115902;28;1053;-65
2022/10/20 02:48:10;;;;;;;;;;;;;;;11.90;63.03;95714.44;5115795;28;1073;-65
2022/10/20 02:50:36;;;;;;;;;;;;;;;11.80;63.23;95713.66;5108234;28;1255;-65
2022/10/20 02:53:03;;;;;;;;;;;;;;;11.46;63.55;95725.06;5095185;28;1242;-66
2022/10/20 02:55:29;;;;;;;;;;;;;;;11.10;64.78;95722.34;5095498;28;976;-65
2022/10/20 02:57:56;;;;;;;;;;;;;;;11.13;65.02;95723.88;5095442;28;1023;-64
2022/10/20 03:00:22;;;;;;;;;;;;;;;11.37;64.45;95717.94;5095103;28;1069;-64
2022/10/20 03:02:50;;;;;;;;;;;;;;;11.49;63.80;95722.06;5095075;28;1901;-65
2022/10/20 03:05:17;;;;;;;;;;;;;;;11.53;63.80;95723.47;5095110;28;989;-65
2022/10/20 03:07:43;;;;;;;;;;;;;;;11.57;63.37;95729.34;5095074;28;1012;-65
2022/10/20 03:10:10;;;;;;;;;;;;;;;11.50;63.38;95733.66;5095172;28;1028;-65
2022/10/20 03:12:35;;;;;;;;;;;;;;;11.52;63.04;95735.16;5094942;28;1120;-65
2022/10/20 03:15:02;;;;;;;;;;;;;;;11.58;62.97;95733.72;5095048;28;1051;-65
2022/10/20 03:17:28;;;;;;;;;;;;;;;11.59;62.95;95746.13;5094927;28;1032;-65
2022/10/20 03:19:54;;;;;;;;;;;;;;;11.41;62.98;95740.75;5094792;28;1052;-65
2022/10/20 03:22:20;;;;;;;;;;;;;;;11.18;63.56;95743.03;5094603;28;1882;-65
2022/10/20 03:24:46;;;;;;;;;;;;;;;11.23;63.74;95739.88;5094757;28;1147;-65
2022/10/20 03:27:12;;;;;;;;;;;;;;;11.33;62.94;95736.16;5094799;28;924;-65
2022/10/20 03:29:38;;;;;;;;;;;;;;;11.24;62.97;95752.28;5094621;28;1103;-65
2022/10/20 03:32:04;;;;;;;;;;;;;;;11.32;62.50;95744.34;5094742;28;1020;-65
2022/10/20 03:34:30;;;;;;;;;;;;;;;11.36;62.12;95740.34;5094553;28;976;-65
2022/10/20 03:36:56;;;;;;;;;;;;;;;11.33;61.86;95741.50;5094447;28;1221;-65
2022/10/20 03:39:22;;;;;;;;;;;;;;;11.04;62.75;95746.19;5094363;28;1078;-66
2022/10/20 03:41:48;;;;;;;;;;;;;;;10.99;63.17;95743.13;5094549;28;1897;-65
2022/10/20 03:44:14;;;;;;;;;;;;;;;11.08;62.79;95752.94;5094485;28;969;-65
2022/10/20 03:46:40;;;;;;;;;;;;;;;10.83;63.31;95749.97;5093906;28;1131;-65
2022/10/20 03:49:06;;;;;;;;;;;;;;;10.72;64.06;95747.50;5094192;28;1059;-65
2022/10/20 03:51:32;;;;;;;;;;;;;;;10.96;63.43;95748.78;5109808;28;1323;-66
2022/10/20 03:53:58;;;;;;;;;;;;;;;10.78;63.17;95754.09;5114893;28;969;-65
2022/10/20 03:56:24;;;;;;;;;;;;;;;10.62;64.38;95742.16;5114634;28;1047;-65
2022/10/20 03:58:50;;;;;;;;;;;;;;;10.78;64.09;95746.06;5114658;28;1055;-65
2022/10/20 04:01:18;;;;;;;;;;;;;;;10.80;63.68;95746.75;5114450;28;1015;-64
2022/10/20 04:03:44;;;;;;;;;;;;;;;10.71;64.02;95754.66;5114418;28;1914;-65
2022/10/20 04:06:13;;;;;;;;;;;;;;;10.83;63.45;95752.66;5114157;28;1069;-65
2022/10/20 04:08:39;;;;;;;;;;;;;;;10.87;63.11;95755.84;5114579;28;1020;-65
2022/10/20 04:11:06;;;;;;;;;;;;;;;10.71;63.45;95749.31;5114462;28;965;-65
2022/10/20 04:13:32;;;;;;;;;;;;;;;10.72;63.28;95752.84;5114399;28;973;-65
2022/10/20 04:15:58;;;;;;;;;;;;;;;10.69;63.21;95750.44;5114378;28;949;-64
2022/10/20 04:18:24;;;;;;;;;;;;;;;10.73;62.67;95744.66;5114039;28;1128;-65
2022/10/20 04:20:50;;;;;;;;;;;;;;;10.65;62.60;95749.91;5114062;28;1140;-65
2022/10/20 04:23:16;;;;;;;;;;;;;;;10.16;63.70;95747.34;5114179;28;1910;-64
2022/10/20 04:25:46;;;;;;;;;;;;;;;10.18;64.13;95754.38;5114261;28;1012;-65
2022/10/20 04:28:13;;;;;;;;;;;;;;;10.26;64.20;95760.69;5113946;28;1069;-65
2022/10/20 04:30:39;;;;;;;;;;;;;;;10.57;63.25;95773.88;5113971;28;1065;-65
2022/10/20 04:33:05;;;;;;;;;;;;;;;10.61;62.86;95775.25;5114006;28;1027;-65
2022/10/20 04:35:31;;;;;;;;;;;;;;;10.75;62.34;95768.56;5113736;28;1116;-65
2022/10/20 04:37:57;;;;;;;;;;;;;;;10.74;62.05;95766.91;5112907;28;1032;-65
2022/10/20 04:40:23;;;;;;;;;;;;;;;10.73;61.99;95774.06;5113997;28;1034;-65
2022/10/20 04:42:49;;;;;;;;;;;;;;;10.42;62.23;95776.16;5113911;28;1918;-65
2022/10/20 04:45:15;;;;;;;;;;;;;;;10.38;62.66;95781.91;5113816;28;969;-65
2022/10/20 04:47:41;;;;;;;;;;;;;;;10.32;62.41;95778.00;5113786;28;1159;-65
2022/10/20 04:50:07;;;;;;;;;;;;;;;10.31;62.55;95787.84;5110025;28;1251;-65
2022/10/20 04:52:33;;;;;;;;;;;;;;;10.40;62.65;95788.00;5093182;28;1252;-66
2022/10/20 04:54:59;;;;;;;;;;;;;;;10.45;62.62;95791.91;5093281;28;1090;-66
2022/10/20 04:57:26;;;;;;;;;;;;;;;10.60;62.40;95794.13;5093211;28;1101;-65
2022/10/20 04:59:52;;;;;;;;;;;;;;;10.71;62.04;95786.75;5096870;28;1056;-65
2022/10/20 05:02:18;;;;;;;;;;;;;;;10.68;62.24;95783.53;5097392;28;1910;-65
2022/10/20 05:04:44;;;;;;;;;;;;;;;10.56;62.36;95796.22;5097428;28;985;-65
2022/10/20 05:07:10;;;;;;;;;;;;;;;10.47;62.91;95800.63;5097560;28;969;-65
2022/10/20 05:09:36;;;;;;;;;;;;;;;10.55;62.81;95799.91;5097604;28;985;-65
2022/10/20 05:12:02;;;;;;;;;;;;;;;10.59;62.25;95805.81;5097308;28;1076;-65
2022/10/20 05:14:28;;;;;;;;;;;;;;;10.63;62.31;95810.72;5097288;28;953;-65
2022/10/20 05:16:54;;;;;;;;;;;;;;;10.43;62.71;95811.75;5097317;28;1016;-65
2022/10/20 05:19:20;;;;;;;;;;;;;;;10.43;62.81;95817.09;5097143;28;1008;-65
2022/10/20 05:21:46;;;;;;;;;;;;;;;10.43;62.59;95815.25;5097323;28;2000;-65
2022/10/20 05:24:14;;;;;;;;;;;;;;;10.43;62.70;95814.41;5097019;28;1069;-65
2022/10/20 05:26:40;;;;;;;;;;;;;;;10.54;62.87;95809.75;5097216;28;999;-65
2022/10/20 05:29:07;;;;;;;;;;;;;;;10.45;62.74;95815.13;5097125;28;1051;-65
2022/10/20 05:31:37;;;;;;;;;;;;;;;10.28;63.69;95820.19;5096982;28;1056;-65
2022/10/20 05:34:04;;;;;;;;;;;;;;;10.38;64.16;95820.22;5096797;28;1064;-65
2022/10/20 05:36:30;;;;;;;;;;;;;;;10.49;63.89;95824.53;5096767;28;1008;-65
2022/10/20 05:38:56;;;;;;;;;;;;;;;10.59;64.06;95828.03;5096800;28;1041;-65
2022/10/20 05:41:24;;;;;;;;;;;;;;;10.49;64.49;95832.56;5096781;28;981;-65
2022/10/20 05:43:52;;;;;;;;;;;;;;;10.61;64.36;95833.25;5096786;28;1905;-65
2022/10/20 05:46:18;;;;;;;;;;;;;;;10.70;64.62;95841.25;5096663;28;1044;-65
2022/10/20 05:48:45;;;;;;;;;;;;;;;10.92;64.31;95841.88;5096600;28;1031;-65
2022/10/20 05:51:16;;;;;;;;;;;;;;;11.12;64.33;95843.50;5108909;28;1291;-65
2022/10/20 05:53:42;;;;;;;;;;;;;;;11.13;64.76;95849.69;5116744;28;1147;-65
2022/10/20 05:56:09;;;;;;;;;;;;;;;11.13;64.47;95855.03;5116820;28;1147;-65
2022/10/20 05:58:36;;;;;;;;;;;;;;;11.21;64.67;95863.19;5116973;28;1043;-65
2022/10/20 06:01:06;;;;;;;;;;;;;;;11.37;64.31;95859.84;5116886;28;1063;-65
2022/10/20 06:03:32;;;;;;;;;;;;;;;11.50;64.47;95863.03;5116728;28;1905;-65
2022/10/20 06:05:59;;;;;;;;;;;;;;;11.60;64.46;95865.66;5116643;28;1041;-66
2022/10/20 06:08:27;;;;;;;;;;;;;;;11.67;64.37;95865.91;5116782;28;1019;-66
2022/10/20 06:10:53;;;;;;;;;;;;;;;11.80;64.70;95869.06;5115833;28;1235;-66
2022/10/20 06:13:19;;;;;;;;;;;;;;;11.94;64.54;95882.97;5116528;28;1037;-66
2022/10/20 06:15:48;;;;;;;;;;;;;;;12.03;64.82;95884.75;5116428;28;1077;-66
2022/10/20 06:18:14;;;;;;;;;;;;;;;12.05;65.07;95904.19;5116355;28;1055;-66
2022/10/20 06:20:40;;;;;;;;;;;;;;;12.15;64.47;95899.59;5116569;28;1152;-66
2022/10/20 06:23:06;;;;;;;;;;;;;;;12.27;64.21;95900.19;5116260;28;1987;-66
2022/10/20 06:25:32;;;;;;;;;;;;;;;12.34;63.19;95895.06;5116371;28;1040;-66
2022/10/20 06:27:58;;;;;;;;;;;;;;;12.39;63.11;95907.03;5116390;28;921;-66
2022/10/20 06:30:24;;;;;;;;;;;;;;;12.45;63.64;95902.88;5116110;27;1026;-65
2022/10/20 06:32:54;;;;;;;;;;;;;;;12.51;64.55;95899.59;5116157;28;1053;-65
2022/10/20 06:35:20;;;;;;;;;;;;;;;12.59;63.80;95904.16;5115989;28;1077;-65
2022/10/20 06:37:46;;;;;;;;;;;;;;;12.64;63.78;95909.91;5116484;28;1008;-65
2022/10/20 06:40:12;;;;;;;;;;;;;;;12.67;63.63;95901.53;5116100;28;984;-65
2022/10/20 06:42:38;;;;;;;;;;;;;;;12.77;63.94;95912.22;5115986;28;1882;-65
2022/10/20 06:45:04;;;;;;;;;;;;;;;12.92;64.08;95915.16;5115862;28;1034;-65
2022/10/20 06:47:30;;;;;;;;;;;;;;;13.08;62.25;95910.72;5116033;28;1048;-65
2022/10/20 06:49:56;;;;;;;;;;;;;;;13.24;62.61;95909.16;5113802;28;1548;-65
2022/10/20 06:52:22;;;;;;;;;;;;;;;13.33;61.24;95915.44;5095276;28;1222;-65
2022/10/20 06:54:48;;;;;;;;;;;;;;;13.34;60.88;95915.28;5095467;28;965;-65
2022/10/20 06:57:14;;;;;;;;;;;;;;;13.35;61.02;95916.97;5095289;28;1056;-65
2022/10/20 06:59:40;;;;;;;;;;;;;;;13.34;61.23;95915.28;5095251;28;1057;-64
2022/10/20 07:02:09;;;;;;;;;;;;;;;13.34;61.08;95912.59;5095087;28;1979;-65
2022/10/20 07:04:35;;;;;;;;;;;;;;;13.35;60.96;95908.91;5095409;28;953;-65
2022/10/20 07:07:01;;;;;;;;;;;;;;;13.42;60.10;95907.28;5095305;28;976;-65
2022/10/20 07:09:27;;;;;;;;;;;;;;;13.56;60.23;95907.66;5095106;28;952;-65
2022/10/20 07:11:53;;;;;;;;;;;;;;;13.65;60.74;95904.00;5095060;28;1104;-65
2022/10/20 07:14:19;;;;;;;;;;;;;;;13.77;60.56;95901.88;5094897;28;1051;-65
2022/10/20 07:16:45;;;;;;;;;;;;;;;13.90;60.52;95902.25;5095157;28;988;-65
2022/10/20 07:19:11;;;;;;;;;;;;;;;14.00;59.81;95894.91;5094761;28;1049;-65
2022/10/20 07:21:38;;;;;;;;;;;;;;;14.12;59.45;95898.13;5094268;28;1071;-65
2022/10/20 07:24:05;;;;;;;;;;;;;;;14.23;59.52;95895.13;5094413;28;1909;-65
2022/10/20 07:26:32;;;;;;;;;;;;;;;14.33;58.03;95889.56;5094635;28;1057;-65
2022/10/20 07:28:59;;;;;;;;;;;;;;;14.64;57.81;95892.50;5094672;28;1086;-66
2022/10/20 07:31:27;;;;;;;;;;;;;;;15.07;56.27;95886.06;5094561;28;964;-66
2022/10/20 07:33:54;;;;;;;;;;;;;;;15.35;55.10;95890.03;5094811;28;1033;-66
2022/10/20 07:36:22;;;;;;;;;;;;;;;15.52;54.01;95903.47;5094636;28;1048;-66
2022/10/20 07:38:49;;;;;;;;;;;;;;;15.81;52.36;95900.19;5094514;28;1029;-66
2022/10/20 07:41:15;;;;;;;;;;;;;;;15.96;52.90;95895.72;5094396;28;1043;-67
2022/10/20 07:43:42;;;;;;;;;;;;;;;16.05;52.41;95892.97;5094289;28;1930;-68
2022/10/20 07:46:09;;;;;;;;;;;;;;;16.23;51.14;95890.84;5094495;28;969;-68
2022/10/20 07:48:36;;;;;;;;;;;;;;;16.37;50.73;95894.63;5094517;28;973;-68
2022/10/20 07:51:20;;;;;;;;;;;;;;;16.57;50.82;95889.63;5105569;28;1275;-68
2022/10/20 07:53:47;;;;;;;;;;;;;;;16.71;51.10;95896.94;5114611;28;1078;-68
2022/10/20 07:56:13;;;;;;;;;;;;;;;16.72;49.98;95895.06;5114534;28;972;-69
2022/10/20 07:58:39;;;;;;;;;;;;;;;16.84;50.58;95890.94;5114514;28;1154;-69
2022/10/20 08:01:06;;;;;;;;;;;;;;;17.06;50.44;95889.22;5114685;28;949;-69
2022/10/20 08:03:32;;;;;;;;;;;;;;;17.23;49.17;95898.00;5114321;28;2016;-68
2022/10/20 08:05:58;;;;;;;;;;;;;;;17.48;48.57;95903.16;5114422;28;1051;-69
2022/10/20 08:08:24;;;;;;;;;;;;;;;17.67;48.04;95899.06;5114404;28;1180;-69
2022/10/20 08:10:50;;;;;;;;;;;;;;;17.86;48.72;95897.69;5114335;28;1023;-69
2022/10/20 08:13:16;;;;;;;;;;;;;;;17.99;47.90;95899.72;5114490;28;1059;-69
2022/10/20 08:15:42;;;;;;;;;;;;;;;18.12;47.63;95892.59;5114290;28;1072;-68
2022/10/20 08:18:08;;;;;;;;;;;;;;;18.29;45.77;95901.34;5114190;28;1052;-69
2022/10/20 08:20:34;;;;;;;;;;;;;;;18.51;46.00;95888.63;5114206;28;1112;-69
2022/10/20 08:23:00;;;;;;;;;;;;;;;18.61;46.13;95893.75;5114044;28;2257;-69
2022/10/20 08:25:27;;;;;;;;;;;;;;;18.70;44.96;95889.91;5113971;28;1075;-69
2022/10/20 08:27:53;;;;;;;;;;;;;;;18.74;44.14;95893.03;5114070;28;949;-68
2022/10/20 08:30:19;;;;;;;;;;;;;;;18.99;44.15;95898.06;5113837;28;1065;-68
2022/10/20 08:32:49;;;;;;;;;;;;;;;19.08;43.46;95889.63;5113747;28;1104;-69
2022/10/20 08:35:15;;;;;;;;;;;;;;;19.30;43.00;95892.28;5113968;28;1039;-69
2022/10/20 08:37:41;;;;;;;;;;;;;;;19.51;43.28;95891.38;5113925;28;1111;-68
2022/10/20 08:40:11;;;;;;;;;;;;;;;19.61;43.25;95889.13;5113722;28;1045;-69
2022/10/20 08:42:39;;;;;;;;;;;;;;;19.95;41.86;95892.91;5114058;28;1938;-69
2022/10/20 08:45:22;;;;;;;;;;;;;;;19.89;41.12;95888.28;5113955;28;1027;-68
2022/10/20 08:47:49;;;;;;;;;;;;;;;20.02;41.53;95890.22;5113860;28;1168;-69
2022/10/20 08:50:16;;;;;;;;;;;;;;;20.25;40.99;95885.28;5109029;28;1338;-69
2022/10/20 08:52:43;;;;;;;;;;;;;;;20.45;40.73;95896.22;5093082;28;1068;-69
2022/10/20 08:55:17;;;;;;;;;;;;;;;20.62;41.17;95885.88;5092381;28;1573;-69
2022/10/20 08:57:46;;;;;;;;;;;;;;;20.74;41.43;95894.25;5093370;28;1096;-69
2022/10/20 09:00:12;;;;;;;;;;;;;;;20.82;40.76;95888.59;5093263;28;1036;-69
2022/10/20 09:02:38;;;;;;;;;;;;;;;21.10;40.90;95894.91;5093211;28;1983;-69
2022/10/20 09:05:06;;;;;;;;;;;;;;;21.33;40.31;95892.59;5093289;28;1234;-68
2022/10/20 09:07:34;;;;;;;;;;;;;;;21.65;39.50;95892.78;5093198;28;1123;-69
2022/10/20 09:10:17;;;;;;;;;;;;;;;21.92;39.02;95890.00;5093472;28;1047;-69
2022/10/20 09:12:45;;;;;;;;;;;;;;;22.43;38.42;95891.91;5093416;28;1056;-69
2022/10/20 09:15:12;;;;;;;;;;;;;;;22.64;37.96;95890.75;5093219;28;1016;-69
2022/10/20 09:17:40;;;;;;;;;;;;;;;22.66;37.56;95895.97;5093124;28;1104;-69
2022/10/20 09:20:14;;;;;;;;;;;;;;;22.62;37.63;95890.13;5093090;28;1056;-69
2022/10/20 09:22:40;;;;;;;;;;;;;;;22.33;38.37;95889.66;5093315;28;1905;-68
2022/10/20 09:25:11;;;;;;;;;;;;;;;22.21;38.54;95892.19;5093099;28;1088;-69
2022/10/20 09:27:41;;;;;;;;;;;;;;;21.94;37.45;95893.34;5093228;28;1043;-69
2022/10/20 09:30:12;;;;;;;;;;;;;;;21.59;38.72;95880.88;5093018;28;1041;-69
2022/10/20 09:32:39;;;;;;;;;;;;;;;21.16;39.93;95884.00;5093274;28;1060;-68
2022/10/20 09:35:16;;;;;;;;;;;;;;;20.77;39.66;95882.97;5093230;28;1040;-69
2022/10/20 09:37:46;;;;;;;;;;;;;;;20.30;41.45;95876.56;5093165;28;1067;-69
2022/10/20 09:40:16;;;;;;;;;;;;;;;19.86;42.51;95869.69;5092982;28;960;-69
2022/10/20 09:42:48;;;;;;;;;;;;;;;19.36;43.44;95858.94;5092978;28;1989;-69
2022/10/20 09:45:14;;;;;;;;;;;;;;;19.03;44.73;95856.03;5093432;28;1037;-69
2022/10/20 09:47:44;;;;;;;;;;;;;;;18.80;44.85;95861.63;5096672;28;1151;-68
2022/10/20 09:50:16;;;;;;;;;;;;;;;18.60;43.63;95854.16;5100386;28;1303;-69
2022/10/20 09:52:46;;;;;;;;;;;;;;;18.49;45.01;95852.78;5116948;27;1100;-69
2022/10/20 09:55:35;;;;;;;;;;;;;;;18.44;44.40;95848.97;5116882;28;1031;-69
2022/10/20 09:58:03;;;;;;;;;;;;;;;18.33;45.18;95848.47;5108937;28;1100;-69
2022/10/20 10:00:39;;;;;;;;;;;;;;;18.29;44.65;95847.19;5116768;28;1011;-69
2022/10/20 10:03:10;;;;;;;;;;;;;;;18.20;44.85;95852.94;5117003;28;1914;-68
2022/10/20 10:05:36;;;;;;;;;;;;;;;18.17;45.23;95847.88;5116734;28;1120;-69
2022/10/20 10:08:02;;;;;;;;;;;;;;;18.33;44.07;95844.94;5116587;28;953;-69
2022/10/20 10:10:29;;;;;;;;;;;;;;;18.36;43.83;95841.81;5116828;28;1016;-69
2022/10/20 10:12:59;;;;;;;;;;;;;;;18.39;44.50;95838.75;5116792;28;1032;-69
2022/10/20 10:15:27;;;;;;;;;;;;;;;18.48;45.09;95839.47;5116547;28;1025;-68
2022/10/20 10:17:54;;;;;;;;;;;;;;;18.45;43.08;95840.69;5116538;28;1040;-69
2022/10/20 10:20:27;;;;;;;;;;;;;;;18.35;42.68;95848.28;5116429;28;1041;-68
2022/10/20 10:23:06;;;;;;;;;;;;;;;18.32;43.24;95841.38;5116581;28;1984;-68
2022/10/20 10:25:32;;;;;;;;;;;;;;;18.33;44.21;95831.41;5116638;28;1028;-69
2022/10/20 10:28:05;;;;;;;;;;;;;;;18.43;43.78;95834.63;5116494;28;1110;-68
2022/10/20 10:30:36;;;;;;;;;;;;;;;18.53;44.03;95831.59;5116365;28;972;-68
2022/10/20 10:33:15;;;;;;;;;;;;;;;18.52;43.34;95830.75;5116233;28;1028;-68
2022/10/20 10:35:42;;;;;;;;;;;;;;;18.49;43.52;95828.41;5116258;28;1112;-68
2022/10/20 10:38:09;;;;;;;;;;;;;;;18.48;43.95;95826.75;5116017;28;1124;-68
2022/10/20 10:40:40;;;;;;;;;;;;;;;18.48;43.90;95823.22;5116288;28;1799;-68
2022/10/20 10:43:32;;;;;;;;;;;;;;;18.50;42.58;95826.56;5116095;28;1909;-68
2022/10/20 10:45:58;;;;;;;;;;;;;;;18.54;43.63;95825.16;5111134;28;1065;-68
2022/10/20 10:48:31;;;;;;;;;;;;;;;18.60;43.01;95816.25;5115882;28;1044;-68
2022/10/20 10:51:06;;;;;;;;;;;;;;;18.59;43.37;95809.16;5105461;28;1283;-69
2022/10/20 10:53:32;;;;;;;;;;;;;;;18.52;42.86;95808.25;5095334;28;1120;-68
2022/10/20 10:55:58;;;;;;;;;;;;;;;18.51;43.39;95809.28;5095139;28;1062;-68
2022/10/20 10:58:42;;;;;;;;;;;;;;;18.47;42.71;95803.41;5095525;28;968;-68
2022/10/20 11:01:29;;;;;;;;;;;;;;;18.51;42.27;95804.69;5095394;28;1056;-68
2022/10/20 11:04:17;;;;;;;;;;;;;;;18.52;43.29;95798.25;5064064;28;1902;-68
2022/10/20 11:06:52;;;;;;;;;;;;;;;18.56;43.01;95796.00;5095210;28;996;-68
2022/10/20 11:09:23;;;;;;;;;;;;;;;18.62;42.67;95795.22;5095262;28;984;-69
2022/10/20 11:11:52;;;;;;;;;;;;;;;18.58;42.10;95780.38;5095112;28;1207;-68
2022/10/20 11:14:29;;;;;;;;;;;;;;;18.57;42.25;95780.59;5095038;28;1046;-68
2022/10/20 11:17:04;;;;;;;;;;;;;;;18.53;42.84;95777.44;5094921;28;1206;-68
2022/10/20 11:19:46;;;;;;;;;;;;;;;18.54;42.34;95774.53;5095011;28;989;-68
2022/10/20 11:22:30;;;;;;;;;;;;;;;18.62;42.78;95767.31;5094862;28;1909;-68
2022/10/20 11:25:01;;;;;;;;;;;;;;;18.56;43.06;95768.09;5094905;28;1028;-68
2022/10/20 11:27:33;;;;;;;;;;;;;;;18.48;41.81;95775.31;5094613;28;1116;-68
2022/10/20 11:30:07;;;;;;;;;;;;;;;18.45;42.04;95761.31;5094630;28;1163;-68
2022/10/20 11:32:42;;;;;;;;;;;;;;;18.45;42.50;95759.44;5094854;28;1021;-68
2022/10/20 11:35:27;;;;;;;;;;;;;;;18.53;42.46;95767.44;5094713;28;992;-69
2022/10/20 11:38:11;;;;;;;;;;;;;;;18.62;42.82;95751.88;5095016;28;1043;-69
2022/10/20 11:40:39;;;;;;;;;;;;;;;18.67;42.88;95754.00;5094753;28;1044;-68
2022/10/20 11:43:15;;;;;;;;;;;;;;;18.70;42.97;95754.47;5094526;28;1986;-68
2022/10/20 11:45:46;;;;;;;;;;;;;;;18.73;42.23;95750.50;5094898;28;973;-68
2022/10/20 11:48:32;;;;;;;;;;;;;;;18.73;42.39;95750.50;5094298;28;1052;-68
2022/10/20 11:51:05;;;;;;;;;;;;;;;18.73;42.87;95753.22;5105160;28;1410;-68
2022/10/20 11:53:31;;;;;;;;;;;;;;;18.66;41.92;95749.63;5114377;28;1124;-68
2022/10/20 11:56:10;;;;;;;;;;;;;;;18.61;42.20;95743.94;5114515;28;996;-68
2022/10/20 11:58:48;;;;;;;;;;;;;;;18.62;42.63;95753.75;5114657;28;1043;-68
2022/10/20 12:01:32;;;;;;;;;;;;;;;18.64;41.02;95746.28;5114544;28;1041;-68
2022/10/20 12:04:06;;;;;;;;;;;;;;;18.71;41.01;95744.47;5114322;28;1906;-68
2022/10/20 12:06:33;;;;;;;;;;;;;;;18.71;41.65;95739.03;5114548;28;1032;-68
2022/10/20 12:09:05;;;;;;;;;;;;;;;18.68;39.54;95737.53;5113780;28;960;-68
2022/10/20 12:11:41;;;;;;;;;;;;;;;18.72;40.60;95730.72;5114200;28;1031;-68
2022/10/20 12:14:13;;;;;;;;;;;;;;;18.78;40.89;95733.66;5114662;28;1032;-68
2022/10/20 12:16:52;;;;;;;;;;;;;;;18.79;40.27;95728.03;5114358;28;1028;-68
2022/10/20 12:19:24;;;;;;;;;;;;;;;18.78;41.68;95720.97;5114158;28;996;-68
2022/10/20 12:21:58;;;;;;;;;;;;;;;18.79;41.07;95721.78;5114064;28;1087;-68
2022/10/20 12:24:30;;;;;;;;;;;;;;;18.75;41.81;95718.66;5114272;28;1015;-69
2022/10/20 12:27:15;;;;;;;;;;;;;;;18.78;41.88;95720.97;5114177;28;1099;-69
2022/10/20 12:29:41;;;;;;;;;;;;;;;18.77;40.70;95722.00;5114196;28;972;-68
2022/10/20 12:32:26;;;;;;;;;;;;;;;18.80;40.92;95715.31;5113819;28;1092;-69
2022/10/20 12:34:51;;;;;;;;;;;;;;;18.84;39.86;95712.06;5114222;28;960;-70
2022/10/20 12:37:24;;;;;;;;;;;;;;;18.82;40.14;95714.16;5113874;28;1134;-68
2022/10/20 12:39:51;;;;;;;;;;;;;;;18.70;40.64;95713.84;5113978;28;1008;-68
2022/10/20 12:42:20;;;;;;;;;;;;;;;18.66;40.23;95717.13;5113833;28;1914;-68
2022/10/20 12:44:47;;;;;;;;;;;;;;;18.68;41.27;95710.47;5113816;28;1075;-67
2022/10/20 12:47:22;;;;;;;;;;;;;;;18.68;41.52;95715.88;5114017;28;1056;-68
2022/10/20 12:49:57;;;;;;;;;;;;;;;18.66;40.72;95714.41;5113113;28;1279;-68
2022/10/20 12:52:27;;;;;;;;;;;;;;;18.65;39.55;95721.72;5093173;28;1262;-69
2022/10/20 12:54:55;;;;;;;;;;;;;;;18.61;40.03;95719.56;5093457;28;963;-69
2022/10/20 12:57:27;;;;;;;;;;;;;;;18.59;39.92;95725.22;5093241;28;969;-69
2022/10/20 12:59:53;;;;;;;;;;;;;;;18.61;40.12;95711.44;5093577;28;1059;-69
2022/10/20 13:02:19;;;;;;;;;;;;;;;18.59;40.28;95719.78;5093136;28;1995;-69
2022/10/20 13:05:08;;;;;;;;;;;;;;;18.62;38.92;95715.84;5093411;28;1020;-69
2022/10/20 13:07:51;;;;;;;;;;;;;;;18.61;40.10;95711.44;5085215;28;1265;-69